This is the latest recevied weather packets stored in our database for station/object PY2VE-13. If no packets are shown the sender has not sent any weather packets the latest 10 day(s).
| Time | Temp. | Humidity | Pressure | Rain* | Wind** | Luminosity | Snow |
|---|---|---|---|---|---|---|---|
| 1777857529 | 22.22° C | 53% | 1024.6 hPa | - | - | - | - |
| 1777856629 | 22.78° C | 53% | 1024.5 hPa | - | - | - | - |
| 1777855729 | 22.78° C | 52% | 1024.5 hPa | - | - | - | - |
| 1777854829 | 22.78° C | 53% | 1024.6 hPa | - | - | - | - |
| 1777853929 | 22.78° C | 53% | 1024.6 hPa | - | - | - | - |
| 1777853029 | 22.22° C | 53% | 1024.5 hPa | - | - | - | - |
| 1777852129 | 22.22° C | 53% | 1024.5 hPa | - | - | - | - |
| 1777851229 | 22.78° C | 53% | 1024.2 hPa | - | - | - | - |
| 1777850329 | 22.78° C | 53% | 1024.2 hPa | - | - | - | - |
| 1777849429 | 22.78° C | 53% | 1024.1 hPa | - | - | - | - |
| 1777848529 | 22.78° C | 52% | 1023.8 hPa | - | - | - | - |
| 1777847629 | 22.78° C | 52% | 1023.7 hPa | - | - | - | - |
| 1777846729 | 23.33° C | 51% | 1023.5 hPa | - | - | - | - |
| 1777845829 | 22.78° C | 52% | 1023.4 hPa | - | - | - | - |
| 1777844929 | 23.33° C | 51% | 1023.2 hPa | - | - | - | - |
| 1777844029 | 23.33° C | 51% | 1023.3 hPa | - | - | - | - |
| 1777843137 | 23.33° C | 50% | 1023.3 hPa | - | - | - | - |
| 1777842224 | 23.33° C | 51% | 1023.2 hPa | - | - | - | - |
| 1777841329 | 23.89° C | 51% | 1022.9 hPa | - | - | - | - |
| 1777840429 | 23.89° C | 51% | 1022.8 hPa | - | - | - | - |
| 1777839529 | 24.44° C | 49% | 1022.5 hPa | - | - | - | - |
| 1777838629 | 24.44° C | 48% | 1022.5 hPa | - | - | - | - |
| 1777837729 | 25.56° C | 47% | 1022.2 hPa | - | - | - | - |
| 1777836829 | 26.67° C | 45% | 1022 hPa | - | - | - | - |
| 1777835929 | 29.44° C | 38% | 1021.1 hPa | - | - | - | - |
* Rain since midnight (hover to see other rain measurements)
** Current wind speed in m/s (hover to see current wind gust speed)